createdAt,value
2022-09-06T00:01:43.105Z,101461.47
2022-09-06T00:04:15.017Z,101464.94
2022-09-06T00:06:42.510Z,101464.94
2022-09-06T00:09:09.637Z,101464.94
2022-09-06T00:11:37.084Z,101452.81
2022-09-06T00:14:04.465Z,101458.00
2022-09-06T00:16:31.635Z,101454.56
2022-09-06T00:18:58.899Z,101453.69
2022-09-06T00:21:29.928Z,101451.97
2022-09-06T00:23:57.577Z,101452.84
2022-09-06T00:26:24.902Z,101455.44
2022-09-06T00:28:52.174Z,101466.72
2022-09-06T00:31:23.068Z,101459.75
2022-09-06T00:33:51.183Z,101443.25
2022-09-06T00:36:19.048Z,101452.81
2022-09-06T00:38:46.603Z,101456.25
2022-09-06T00:41:15.720Z,101451.94
2022-09-06T00:43:43.547Z,101454.56
2022-09-06T00:46:16.084Z,101451.97
2022-09-06T00:48:45.146Z,101452.81
2022-09-06T00:51:15.618Z,101452.81
2022-09-06T00:53:42.778Z,101449.38
2022-09-06T00:56:10.148Z,101436.38
2022-09-06T00:58:37.680Z,101440.72
2022-09-06T01:01:05.529Z,101444.16
2022-09-06T01:03:33.147Z,101445.03
2022-09-06T01:06:24.942Z,101442.44
2022-09-06T01:09:16.703Z,101438.97
2022-09-06T01:11:43.793Z,101439.00
2022-09-06T01:14:54.983Z,101441.56
2022-09-06T01:17:54.953Z,101433.81
2022-09-06T01:20:43.553Z,101426.84
2022-09-06T01:23:25.745Z,101425.16
2022-09-06T01:26:14.016Z,101426.00
2022-09-06T01:28:49.362Z,101423.41
2022-09-06T01:31:31.577Z,101426.84
2022-09-06T01:34:04.511Z,101419.94
2022-09-06T01:37:10.017Z,101407.81
2022-09-06T01:39:39.756Z,101426.84
2022-09-06T01:42:12.501Z,101419.94
2022-09-06T01:44:55.621Z,101411.28
2022-09-06T01:47:22.810Z,101421.69
2022-09-06T01:49:52.552Z,101420.78
2022-09-06T01:52:24.211Z,101421.69
2022-09-06T01:55:10.964Z,101417.31
2022-09-06T01:58:24.797Z,101412.13
2022-09-06T02:01:03.265Z,101415.59
2022-09-06T02:03:35.704Z,101417.34
2022-09-06T02:06:13.523Z,101418.19
2022-09-06T02:08:46.721Z,101417.34
2022-09-06T02:11:15.982Z,101418.19
2022-09-06T02:13:54.454Z,101423.41
2022-09-06T02:16:25.939Z,101419.06
2022-09-06T02:19:00.144Z,101409.53
2022-09-06T02:21:32.933Z,101419.06
2022-09-06T02:24:03.633Z,101416.44
2022-09-06T02:26:34.766Z,101413.88
2022-09-06T02:29:02.519Z,101411.25
2022-09-06T02:31:34.863Z,101413.00
2022-09-06T02:34:03.131Z,101414.72
2022-09-06T02:36:32.384Z,101402.59
2022-09-06T02:39:02.537Z,101400.03
2022-09-06T02:41:31.333Z,101403.47
2022-09-06T02:43:58.807Z,101406.06
2022-09-06T02:46:26.215Z,101399.16
2022-09-06T02:48:53.496Z,101403.47
2022-09-06T02:51:20.990Z,101392.22
2022-09-06T02:53:48.105Z,101395.69
2022-09-06T02:56:15.432Z,101398.28
2022-09-06T02:58:42.709Z,101394.81
2022-09-06T03:01:09.940Z,101401.69
2022-09-06T03:03:37.459Z,101395.59
2022-09-06T03:06:04.797Z,101393.91
2022-09-06T03:08:34.386Z,101394.75
2022-09-06T03:11:01.571Z,101393.88
2022-09-06T03:13:28.892Z,101406.84
2022-09-06T03:15:58.821Z,101402.50
2022-09-06T03:18:28.016Z,101405.97
2022-09-06T03:20:56.673Z,101406.81
2022-09-06T03:23:26.200Z,101398.97
2022-09-06T03:25:53.705Z,101402.44
2022-09-06T03:28:21.965Z,101400.66
2022-09-06T03:30:50.939Z,101397.19
2022-09-06T03:33:19.266Z,101393.72
2022-09-06T03:36:05.004Z,101395.47
2022-09-06T03:38:32.177Z,101393.75
2022-09-06T03:40:59.508Z,101385.09
2022-09-06T03:43:27.831Z,101390.25
2022-09-06T03:46:00.354Z,101402.34
2022-09-06T03:48:29.378Z,101395.38
2022-09-06T03:50:58.741Z,101404.00
2022-09-06T03:53:28.502Z,101395.34
2022-09-06T03:55:58.448Z,101407.41
2022-09-06T03:58:30.027Z,101397.03
2022-09-06T04:01:11.719Z,101387.44
2022-09-06T04:03:39.898Z,101381.34
2022-09-06T04:06:07.638Z,101390.94
2022-09-06T04:08:35.863Z,101397.00
2022-09-06T04:11:03.763Z,101378.00
2022-09-06T04:13:31.667Z,101383.19
2022-09-06T04:15:59.293Z,101377.13
2022-09-06T04:18:27.231Z,101377.13
2022-09-06T04:20:58.876Z,101374.59
2022-09-06T04:23:28.431Z,101378.94
2022-09-06T04:25:58.070Z,101381.53
2022-09-06T04:28:27.084Z,101373.75
2022-09-06T04:30:58.863Z,101380.69
2022-09-06T04:33:29.749Z,101383.28
2022-09-06T04:35:59.454Z,101388.47
2022-09-06T04:38:28.665Z,101391.03
2022-09-06T04:40:56.228Z,101389.28
2022-09-06T04:43:23.817Z,101374.53
2022-09-06T04:45:51.004Z,101391.88
2022-09-06T04:48:18.250Z,101385.88
2022-09-06T04:50:45.492Z,101389.34
2022-09-06T04:53:12.754Z,101391.94
2022-09-06T04:55:39.946Z,101390.22
2022-09-06T04:58:07.337Z,101389.31
2022-09-06T05:00:36.104Z,101393.66
2022-09-06T05:03:03.254Z,101388.47
2022-09-06T05:05:30.844Z,101400.63
2022-09-06T05:07:57.956Z,101387.63
2022-09-06T05:10:26.267Z,101398.88
2022-09-06T05:12:54.837Z,101398.94
2022-09-06T05:15:23.945Z,101395.50
2022-09-06T05:17:51.147Z,101374.75
2022-09-06T05:20:18.742Z,101388.69
2022-09-06T05:22:54.460Z,101391.28
2022-09-06T05:25:21.872Z,101391.31
2022-09-06T05:27:49.074Z,101388.75
2022-09-06T05:30:18.294Z,101393.94
2022-09-06T05:32:45.504Z,101385.31
2022-09-06T05:35:12.714Z,101383.59
2022-09-06T05:37:39.854Z,101383.59
2022-09-06T05:40:07.663Z,101388.78
2022-09-06T05:42:34.984Z,101388.81
2022-09-06T05:45:02.603Z,101384.47
2022-09-06T05:47:31.470Z,101378.41
2022-09-06T05:49:58.617Z,101385.34
2022-09-06T05:52:25.692Z,101381.88
2022-09-06T05:54:55.938Z,101376.63
2022-09-06T05:57:23.107Z,101380.97
2022-09-06T05:59:50.280Z,101375.75
2022-09-06T06:02:17.535Z,101367.91
2022-09-06T06:04:44.681Z,101376.53
2022-09-06T06:07:11.949Z,101373.00
2022-09-06T06:09:39.814Z,101371.28
2022-09-06T06:12:07.693Z,101372.16
2022-09-06T06:14:35.056Z,101368.63
2022-09-06T06:17:02.881Z,101359.97
2022-09-06T06:19:30.274Z,101359.94
2022-09-06T06:21:58.665Z,101360.72
2022-09-06T06:24:26.216Z,101366.66
2022-09-06T06:26:53.535Z,101367.34
2022-09-06T06:29:20.774Z,101358.59
2022-09-06T06:31:48.040Z,101368.00
2022-09-06T06:34:16.695Z,101365.22
2022-09-06T06:36:44.593Z,101359.91
2022-09-06T06:39:11.746Z,101365.81
2022-09-06T06:41:39.106Z,101366.69
2022-09-06T06:44:27.473Z,101359.63
2022-09-06T06:46:54.700Z,101359.63
2022-09-06T06:49:21.857Z,101356.13
2022-09-06T06:51:48.945Z,101345.59
2022-09-06T06:54:16.071Z,101347.13
2022-09-06T06:56:45.027Z,101345.97
2022-09-06T06:59:12.293Z,101339.81
2022-09-06T07:01:39.823Z,101351.91
2022-09-06T07:04:08.968Z,101349.19
2022-09-06T07:12:24.756Z,101344.13
2022-09-06T07:14:52.048Z,101341.25
2022-09-06T07:17:19.389Z,101341.81
2022-09-06T07:22:33.866Z,101343.47
2022-09-06T07:25:01.000Z,101331.06
2022-09-06T07:30:16.256Z,101346.06
2022-09-06T07:32:43.471Z,101341.25
2022-09-06T07:35:12.563Z,101333.41
2022-09-06T07:37:39.749Z,101340.22
2022-09-06T07:40:07.450Z,101343.53
2022-09-06T07:42:36.380Z,101341.50
2022-09-06T07:45:05.472Z,101344.31
2022-09-06T07:53:10.910Z,101318.09
2022-09-06T07:55:43.420Z,101333.69
2022-09-06T07:58:11.302Z,101333.56
2022-09-06T08:00:41.313Z,101334.34
2022-09-06T08:03:08.750Z,101333.38
2022-09-06T08:11:10.588Z,101337.72
2022-09-06T08:13:38.591Z,101330.28
2022-09-06T08:16:08.438Z,101326.13
2022-09-06T08:18:37.226Z,101321.28
2022-09-06T08:21:12.646Z,101319.34
2022-09-06T08:23:46.891Z,101311.75
2022-09-06T08:26:14.426Z,101314.81
2022-09-06T08:28:41.862Z,101309.25
2022-09-06T08:31:14.626Z,101314.81
2022-09-06T08:33:43.211Z,101315.44
2022-09-06T08:36:11.667Z,101313.13
2022-09-06T08:38:38.780Z,101312.53
2022-09-06T08:41:14.899Z,101318.03
2022-09-06T08:47:08.107Z,101309.69
2022-09-06T08:50:02.953Z,101307.41
2022-09-06T08:53:16.081Z,101303.06
2022-09-06T08:55:56.006Z,101289.03
2022-09-06T08:58:38.185Z,101299.09
2022-09-06T09:01:11.811Z,101296.50
2022-09-06T09:03:41.418Z,101291.97
2022-09-06T09:06:10.493Z,101300.44
2022-09-06T09:09:07.386Z,101297.00
2022-09-06T09:11:36.489Z,101278.63
2022-09-06T09:14:21.380Z,101275.19
2022-09-06T09:16:53.528Z,101274.16
2022-09-06T09:19:21.172Z,101276.91
2022-09-06T09:21:48.629Z,101269.81
2022-09-06T09:24:16.233Z,101264.88
2022-09-06T09:27:04.504Z,101258.88
2022-09-06T09:29:36.165Z,101260.31
2022-09-06T09:32:03.738Z,101250.19
2022-09-06T09:34:31.078Z,101245.28
2022-09-06T09:40:31.096Z,101243.69
2022-09-06T09:43:29.870Z,101255.16
2022-09-06T09:46:13.560Z,101252.00
2022-09-06T09:49:01.581Z,101255.84
2022-09-06T09:51:29.945Z,101246.47
2022-09-06T09:54:00.109Z,101239.47
2022-09-06T09:56:38.666Z,101231.09
2022-09-06T09:59:24.034Z,101237.81
2022-09-06T10:01:56.060Z,101228.56
2022-09-06T10:07:13.732Z,101224.41
2022-09-06T10:09:50.812Z,101222.00
2022-09-06T10:12:33.303Z,101219.84
2022-09-06T10:15:02.434Z,101221.38
2022-09-06T10:17:36.787Z,101216.41
2022-09-06T10:20:12.863Z,101214.72
2022-09-06T10:23:05.436Z,101208.28
2022-09-06T10:25:49.819Z,101217.56
2022-09-06T10:28:30.558Z,101212.28
2022-09-06T10:31:24.456Z,101223.13
2022-09-06T10:33:54.540Z,101215.69
2022-09-06T10:36:37.307Z,101205.13
2022-09-06T10:39:43.373Z,101200.69
2022-09-06T10:42:20.013Z,101214.09
2022-09-06T10:45:08.627Z,101208.19
2022-09-06T10:48:04.906Z,101211.09
2022-09-06T10:50:41.737Z,101201.28
2022-09-06T10:53:19.194Z,101200.03
2022-09-06T10:56:03.063Z,101190.72
2022-09-06T11:01:37.778Z,101200.50
2022-09-06T11:04:12.689Z,101197.19
2022-09-06T11:06:53.831Z,101194.97
2022-09-06T11:09:33.010Z,101206.81
2022-09-06T11:12:26.513Z,101197.88
2022-09-06T11:14:54.118Z,101200.53
2022-09-06T11:17:38.556Z,101189.63
2022-09-06T11:20:15.838Z,101191.16
2022-09-06T11:23:04.815Z,101198.31
2022-09-06T11:25:54.437Z,101180.75
2022-09-06T11:28:49.586Z,101188.09
2022-09-06T11:34:38.745Z,101167.81
2022-09-06T11:37:08.952Z,101178.38
2022-09-06T11:43:01.272Z,101162.53
2022-09-06T11:45:53.077Z,101156.28
2022-09-06T11:48:26.765Z,101157.41
2022-09-06T11:50:54.138Z,101157.53
2022-09-06T11:53:23.721Z,101153.19
2022-09-06T11:56:12.634Z,101158.44
2022-09-06T11:58:42.772Z,101148.53
2022-09-06T12:01:12.916Z,101156.19
2022-09-06T12:04:05.979Z,101154.56
2022-09-06T12:06:43.026Z,101150.63
2022-09-06T12:09:36.742Z,101155.03
2022-09-06T12:12:04.990Z,101138.41
2022-09-06T12:14:42.897Z,101145.84
2022-09-06T12:17:10.071Z,101141.78
2022-09-06T12:19:55.156Z,101135.38
2022-09-06T12:22:28.303Z,101129.81
2022-09-06T12:25:15.748Z,101136.97
2022-09-06T12:28:01.896Z,101123.28
2022-09-06T12:30:32.024Z,101137.13
2022-09-06T12:33:01.313Z,101134.97
2022-09-06T12:38:24.712Z,101126.13
2022-09-06T12:40:58.620Z,101124.44
2022-09-06T12:43:27.207Z,101122.59
2022-09-06T12:45:54.378Z,101123.13
2022-09-06T12:48:31.425Z,101121.28
2022-09-06T12:51:07.498Z,101121.69
2022-09-06T12:53:35.169Z,101119.94
2022-09-06T12:56:05.675Z,101114.16
2022-09-06T12:58:33.729Z,101098.50
2022-09-06T13:01:12.796Z,101100.22
2022-09-06T13:03:50.818Z,101105.72
2022-09-06T13:06:26.209Z,101099.41
2022-09-06T13:08:59.734Z,101104.59
2022-09-06T13:11:32.794Z,101097.41
2022-09-06T13:14:02.155Z,101095.00
2022-09-06T13:16:37.524Z,101087.13
2022-09-06T13:19:14.431Z,101088.72
2022-09-06T13:21:43.397Z,101060.94
2022-09-06T13:24:28.613Z,101082.44
2022-09-06T13:26:55.885Z,101076.50
2022-09-06T13:29:33.357Z,101075.38
2022-09-06T13:32:03.897Z,101074.69
2022-09-06T13:34:32.956Z,101080.31
2022-09-06T13:37:07.477Z,101085.19
2022-09-06T13:39:44.271Z,101074.41
2022-09-06T13:42:25.825Z,101086.75
2022-09-06T13:44:53.069Z,101070.16
2022-09-06T13:47:20.343Z,101068.16
2022-09-06T13:49:47.545Z,101061.91
2022-09-06T13:52:15.694Z,101070.47
2022-09-06T13:54:42.822Z,101065.19
2022-09-06T13:57:10.284Z,101067.31
2022-09-06T13:59:37.437Z,101064.00
2022-09-06T14:02:10.040Z,101067.81
2022-09-06T14:04:37.397Z,101067.19
2022-09-06T14:07:05.516Z,101068.28
2022-09-06T14:09:33.497Z,101068.28
2022-09-06T14:12:01.225Z,101061.16
2022-09-06T14:14:28.307Z,101062.91
2022-09-06T14:16:55.705Z,101059.28
2022-09-06T14:19:23.433Z,101057.28
2022-09-06T14:21:50.630Z,101051.50
2022-09-06T14:24:18.042Z,101038.47
2022-09-06T14:26:45.178Z,101054.53
2022-09-06T14:29:12.436Z,101049.41
2022-09-06T14:31:40.033Z,101037.28
2022-09-06T14:34:07.377Z,101049.63
2022-09-06T14:36:34.807Z,101042.94
2022-09-06T14:39:03.001Z,101057.00
2022-09-06T14:41:30.402Z,101048.53
2022-09-06T14:43:59.357Z,101046.34
2022-09-06T14:46:28.359Z,101043.81
2022-09-06T14:49:00.126Z,101038.69
2022-09-06T14:51:27.429Z,101034.72
2022-09-06T14:54:02.634Z,101034.75
2022-09-06T14:56:30.610Z,101026.41
2022-09-06T14:59:00.186Z,101041.13
2022-09-06T15:01:37.998Z,101030.59
2022-09-06T15:04:08.536Z,101030.59
2022-09-06T15:06:37.228Z,101027.31
2022-09-06T15:09:06.782Z,101036.25
2022-09-06T15:11:36.463Z,101025.97
2022-09-06T15:14:12.305Z,101017.28
2022-09-06T15:16:39.530Z,101018.28
2022-09-06T15:19:08.022Z,101014.53
2022-09-06T15:21:35.347Z,101012.63
2022-09-06T15:24:04.002Z,101011.78
2022-09-06T15:26:33.722Z,101011.06
2022-09-06T15:29:02.650Z,101005.97
2022-09-06T15:31:29.896Z,101006.22
2022-09-06T15:33:58.324Z,101003.72
2022-09-06T15:36:25.520Z,101002.25
2022-09-06T15:38:54.225Z,100999.78
2022-09-06T15:41:25.142Z,100996.38
2022-09-06T15:43:57.456Z,100991.97
2022-09-06T15:46:38.625Z,100996.44
2022-09-06T15:49:10.624Z,100995.50
2022-09-06T15:51:39.889Z,100990.38
2022-09-06T15:54:07.584Z,100986.97
2022-09-06T15:56:34.834Z,100979.97
2022-09-06T15:59:02.054Z,100985.34
2022-09-06T16:01:29.126Z,100980.06
2022-09-06T16:04:05.820Z,100983.75
2022-09-06T16:06:42.763Z,100964.91
2022-09-06T16:09:14.451Z,100969.38
2022-09-06T16:11:42.386Z,100970.53
2022-09-06T16:14:12.659Z,100974.06
2022-09-06T16:16:40.653Z,100972.47
2022-09-06T16:19:09.855Z,100974.28
2022-09-06T16:21:39.337Z,100969.28
2022-09-06T16:24:09.207Z,100976.47
2022-09-06T16:26:39.351Z,100971.34
2022-09-06T16:29:07.919Z,100973.28
2022-09-06T16:31:40.034Z,100966.44
2022-09-06T16:34:08.734Z,100958.72
2022-09-06T16:36:35.823Z,100966.66
2022-09-06T16:39:04.135Z,100966.75
2022-09-06T16:41:45.953Z,100963.44
2022-09-06T16:44:19.182Z,100968.94
2022-09-06T16:46:48.387Z,100975.38
2022-09-06T16:49:17.583Z,100970.44
2022-09-06T16:51:45.965Z,100969.78
2022-09-06T16:54:14.834Z,100973.44
2022-09-06T16:56:42.006Z,100965.84
2022-09-06T16:59:10.763Z,100970.41
2022-09-06T17:01:42.044Z,100963.69
2022-09-06T17:04:10.173Z,100969.13
2022-09-06T17:06:44.678Z,100972.88
2022-09-06T17:09:14.273Z,100973.16
2022-09-06T17:11:41.562Z,100971.69
2022-09-06T17:14:08.858Z,100971.81
2022-09-06T17:16:54.745Z,100977.19
2022-09-06T17:19:22.545Z,100973.13
2022-09-06T17:21:49.633Z,100968.19
2022-09-06T17:24:16.803Z,100972.59
2022-09-06T17:26:43.856Z,100972.81
2022-09-06T17:29:11.313Z,100968.63
2022-09-06T17:31:38.929Z,100976.63
2022-09-06T17:34:07.949Z,100979.50
2022-09-06T17:36:36.652Z,100976.16
2022-09-06T17:39:09.614Z,100978.91
2022-09-06T17:41:39.563Z,100978.16
2022-09-06T17:44:11.209Z,100987.06
2022-09-06T17:46:47.677Z,100981.19
2022-09-06T17:49:19.779Z,100983.06
2022-09-06T17:51:47.627Z,100986.72
2022-09-06T17:54:15.396Z,100993.78
2022-09-06T17:56:42.835Z,100988.75
2022-09-06T17:59:14.351Z,100992.38
2022-09-06T18:01:43.795Z,100996.78
2022-09-06T18:04:12.667Z,100983.81
2022-09-06T18:06:42.186Z,100985.66
2022-09-06T18:09:15.791Z,100989.28
2022-09-06T18:11:46.148Z,101000.69
2022-09-06T18:14:17.918Z,100999.19
2022-09-06T18:16:47.566Z,100994.88
2022-09-06T18:19:16.307Z,100987.13
2022-09-06T18:21:43.839Z,100988.94
2022-09-06T18:24:14.030Z,100992.50
2022-09-06T18:26:42.325Z,100989.97
2022-09-06T18:29:15.130Z,100988.44
2022-09-06T18:31:43.037Z,100987.69
2022-09-06T18:34:10.379Z,100986.94
2022-09-06T18:36:39.126Z,100994.78
2022-09-06T18:39:07.026Z,100982.72
2022-09-06T18:41:53.347Z,100990.59
2022-09-06T18:44:21.545Z,100999.44
2022-09-06T18:46:49.285Z,100996.06
2022-09-06T18:49:17.126Z,100990.84
2022-09-06T18:51:45.893Z,100996.19
2022-09-06T18:54:13.942Z,101003.31
2022-09-06T18:56:42.226Z,100993.81
2022-09-06T18:59:11.003Z,100993.84
2022-09-06T19:01:38.653Z,101003.59
2022-09-06T19:04:07.338Z,100994.00
2022-09-06T19:06:36.436Z,100992.38
2022-09-06T19:09:07.439Z,100989.88
2022-09-06T19:11:35.134Z,100995.16
2022-09-06T19:14:02.376Z,100988.25
2022-09-06T19:16:31.631Z,100984.88
2022-09-06T19:19:07.298Z,100984.88
2022-09-06T19:21:40.774Z,100981.53
2022-09-06T19:24:10.477Z,100984.25
2022-09-06T19:26:39.691Z,100985.19
2022-09-06T19:29:11.490Z,100985.25
2022-09-06T19:31:39.296Z,100991.34
2022-09-06T19:34:07.654Z,100985.31
2022-09-06T19:36:34.996Z,100987.09
2022-09-06T19:39:06.404Z,100980.22
2022-09-06T19:41:38.919Z,100983.81
2022-09-06T19:44:08.876Z,100964.84
2022-09-06T19:46:37.448Z,100975.28
2022-09-06T19:49:05.509Z,100964.16
2022-09-06T19:51:33.357Z,100965.06
2022-09-06T19:54:00.610Z,100963.38
2022-09-06T19:56:33.895Z,100971.25
2022-09-06T19:59:06.579Z,100965.22
2022-09-06T20:01:36.092Z,100975.66
2022-09-06T20:04:07.202Z,100967.00
2022-09-06T20:06:35.151Z,100958.56
2022-09-06T20:09:03.938Z,100955.09
2022-09-06T20:11:33.304Z,100946.66
2022-09-06T20:14:01.348Z,100965.59
2022-09-06T20:16:28.955Z,100945.00
2022-09-06T20:18:56.996Z,100965.69
2022-09-06T20:21:24.227Z,100964.03
2022-09-06T20:23:53.052Z,100963.22
2022-09-06T20:26:23.098Z,100965.03
2022-09-06T20:29:10.546Z,100972.88
2022-09-06T20:31:38.535Z,100973.00
2022-09-06T20:34:06.702Z,100973.84
2022-09-06T20:36:33.956Z,100973.88
2022-09-06T20:39:02.316Z,100963.53
2022-09-06T20:41:29.863Z,100968.78
2022-09-06T20:43:58.913Z,100969.63
2022-09-06T20:46:31.244Z,100967.09
2022-09-06T20:49:04.562Z,100966.25
2022-09-06T20:51:33.655Z,100968.94
2022-09-06T20:54:02.734Z,100971.59
2022-09-06T20:56:35.437Z,100973.38
2022-09-06T20:59:06.524Z,100952.63
2022-09-06T21:01:36.355Z,100969.06
2022-09-06T21:04:06.400Z,100954.41
2022-09-06T21:06:35.910Z,100963.13
2022-09-06T21:09:05.406Z,100957.94
2022-09-06T21:11:32.661Z,100956.28
2022-09-06T21:13:59.813Z,100963.25
2022-09-06T21:16:29.245Z,100963.25
2022-09-06T21:18:58.458Z,100966.78
2022-09-06T21:21:27.104Z,100962.47
2022-09-06T21:23:54.416Z,100961.66
2022-09-06T21:26:22.659Z,100960.00
2022-09-06T21:28:50.281Z,100959.22
2022-09-06T21:31:23.191Z,100949.03
2022-09-06T21:33:55.658Z,100968.00
2022-09-06T21:36:34.198Z,100956.78
2022-09-06T21:39:03.697Z,100937.88
2022-09-06T21:41:31.820Z,100955.03
2022-09-06T21:44:00.674Z,100955.09
2022-09-06T21:46:33.483Z,100957.78
2022-09-06T21:49:04.417Z,100953.50
2022-09-06T21:51:32.727Z,100958.72
2022-09-06T21:54:03.607Z,100961.34
2022-09-06T21:56:32.659Z,100961.34
2022-09-06T21:59:00.382Z,100954.38
2022-09-06T22:01:32.120Z,100953.53
2022-09-06T22:04:00.494Z,100946.72
2022-09-06T22:06:30.005Z,100948.44
2022-09-06T22:08:59.152Z,100951.03
2022-09-06T22:11:29.208Z,100942.41
2022-09-06T22:14:01.516Z,100945.03
2022-09-06T22:16:29.689Z,100935.50
2022-09-06T22:18:56.850Z,100936.41
2022-09-06T22:21:24.742Z,100932.91
2022-09-06T22:24:04.231Z,100931.22
2022-09-06T22:26:33.647Z,100932.16
2022-09-06T22:29:03.208Z,100933.13
2022-09-06T22:31:32.200Z,100929.66
2022-09-06T22:33:59.914Z,100933.13
2022-09-06T22:36:27.769Z,100928.88
2022-09-06T22:38:58.955Z,100930.63
2022-09-06T22:41:28.118Z,100928.03
2022-09-06T22:43:55.369Z,100928.03
2022-09-06T22:46:23.445Z,100927.22
2022-09-06T22:48:50.592Z,100917.72
2022-09-06T22:51:17.883Z,100920.38
2022-09-06T22:53:45.058Z,100917.75
2022-09-06T22:56:12.280Z,100912.59
2022-09-06T22:58:39.436Z,100907.50
2022-09-06T23:01:12.580Z,100910.94
2022-09-06T23:03:41.086Z,100905.84
2022-09-06T23:06:08.768Z,100914.50
2022-09-06T23:08:38.308Z,100905.84
2022-09-06T23:11:07.885Z,100911.84
2022-09-06T23:13:35.169Z,100911.91
2022-09-06T23:16:04.479Z,100918.84
2022-09-06T23:18:31.610Z,100904.25
2022-09-06T23:21:07.801Z,100897.31
2022-09-06T23:23:36.395Z,100918.09
2022-09-06T23:26:05.286Z,100909.47
2022-09-06T23:28:32.611Z,100906.88
2022-09-06T23:31:03.087Z,100901.75
2022-09-06T23:33:31.578Z,100896.56
2022-09-06T23:35:59.180Z,100900.94
2022-09-06T23:38:26.296Z,100893.16
2022-09-06T23:40:53.451Z,100897.53
2022-09-06T23:43:21.324Z,100900.22
2022-09-06T23:45:48.455Z,100895.94
2022-09-06T23:48:15.506Z,100896.84
2022-09-06T23:50:46.081Z,100880.44
2022-09-06T23:53:14.635Z,100883.81
2022-09-06T23:55:42.156Z,100882.09
2022-09-06T23:58:09.816Z,100872.66
